createdAt,value
2022-10-05T00:00:28.926Z,101628.41
2022-10-05T00:02:57.122Z,101620.63
2022-10-05T00:05:29.757Z,101626.69
2022-10-05T00:08:04.984Z,101618.84
2022-10-05T00:10:33.499Z,101624.06
2022-10-05T00:13:01.068Z,101628.44
2022-10-05T00:15:30.576Z,101626.69
2022-10-05T00:17:58.778Z,101625.81
2022-10-05T00:20:26.970Z,101626.66
2022-10-05T00:22:57.825Z,101631.88
2022-10-05T00:25:25.661Z,101631.03
2022-10-05T00:27:55.966Z,101631.91
2022-10-05T00:30:31.033Z,101631.03
2022-10-05T00:33:00.278Z,101644.06
2022-10-05T00:35:27.831Z,101636.22
2022-10-05T00:37:55.905Z,101647.56
2022-10-05T00:40:46.247Z,101650.16
2022-10-05T00:43:37.200Z,101653.63
2022-10-05T00:46:12.256Z,101660.59
2022-10-05T00:48:49.674Z,101658.00
2022-10-05T00:51:28.473Z,101655.34
2022-10-05T00:54:09.041Z,101660.56
2022-10-05T00:57:06.275Z,101652.72
2022-10-05T00:59:46.005Z,101657.97
2022-10-05T01:02:20.810Z,101666.66
2022-10-05T01:04:54.382Z,101663.16
2022-10-05T01:07:35.200Z,101671.88
2022-10-05T01:10:10.628Z,101680.56
2022-10-05T01:12:47.795Z,101684.91
2022-10-05T01:15:22.675Z,101677.09
2022-10-05T01:17:57.196Z,101686.63
2022-10-05T01:20:41.684Z,101674.44
2022-10-05T01:23:39.167Z,101683.16
2022-10-05T01:26:35.931Z,101686.63
2022-10-05T01:29:12.267Z,101683.16
2022-10-05T01:31:47.394Z,101686.66
2022-10-05T01:34:27.002Z,101687.53
2022-10-05T01:37:04.403Z,101695.34
2022-10-05T01:39:44.266Z,101691.03
2022-10-05T01:42:21.953Z,101696.28
2022-10-05T01:45:00.207Z,101701.50
2022-10-05T01:47:36.901Z,101693.63
2022-10-05T01:50:11.600Z,101702.34
2022-10-05T01:52:48.689Z,101701.44
2022-10-05T01:55:25.028Z,101694.47
2022-10-05T01:58:06.270Z,101697.09
2022-10-05T02:00:44.568Z,101699.69
2022-10-05T02:03:18.139Z,101703.16
2022-10-05T02:05:52.376Z,101711.84
2022-10-05T02:08:27.467Z,101707.47
2022-10-05T02:11:01.373Z,101715.31
2022-10-05T02:13:36.908Z,101721.38
2022-10-05T02:16:11.349Z,101732.66
2022-10-05T02:18:47.297Z,101716.94
2022-10-05T02:21:15.350Z,101737.81
2022-10-05T02:23:46.217Z,101734.31
2022-10-05T02:26:15.697Z,101743.78
2022-10-05T02:28:47.621Z,101734.16
2022-10-05T02:31:21.286Z,101747.19
2022-10-05T02:33:49.019Z,101745.41
2022-10-05T02:36:22.084Z,101745.34
2022-10-05T02:39:02.902Z,101747.91
2022-10-05T02:41:46.018Z,101754.81
2022-10-05T02:44:23.527Z,101759.09
2022-10-05T02:47:00.148Z,101757.28
2022-10-05T02:49:37.818Z,101760.78
2022-10-05T02:52:11.883Z,101766.81
2022-10-05T02:54:49.485Z,101761.47
2022-10-05T02:57:27.963Z,101767.47
2022-10-05T03:00:03.378Z,101767.47
2022-10-05T03:02:40.723Z,101776.13
2022-10-05T03:05:19.541Z,101768.22
2022-10-05T03:07:55.749Z,101774.28
2022-10-05T03:10:29.921Z,101779.38
2022-10-05T03:13:05.930Z,101776.72
2022-10-05T03:15:58.402Z,101780.19
2022-10-05T03:18:39.366Z,101774.94
2022-10-05T03:21:23.737Z,101777.50
2022-10-05T03:24:08.090Z,101780.06
2022-10-05T03:26:46.661Z,101786.97
2022-10-05T03:29:29.174Z,101783.50
2022-10-05T03:32:05.937Z,101789.66
2022-10-05T03:34:39.021Z,101800.91
2022-10-05T03:37:14.472Z,101789.50
2022-10-05T03:39:49.058Z,101797.31
2022-10-05T03:42:24.441Z,101791.22
2022-10-05T03:45:03.076Z,101802.53
2022-10-05T03:47:39.806Z,101800.75
2022-10-05T03:50:23.320Z,101805.97
2022-10-05T03:52:56.352Z,101812.94
2022-10-05T03:55:28.484Z,101810.34
2022-10-05T03:57:59.747Z,101818.19
2022-10-05T04:00:30.847Z,101821.59
2022-10-05T04:03:04.194Z,101824.22
2022-10-05T04:05:41.846Z,101822.44
2022-10-05T04:08:16.782Z,101830.25
2022-10-05T04:10:49.513Z,101828.50
2022-10-05T04:13:23.065Z,101825.84
2022-10-05T04:15:57.921Z,101840.63
2022-10-05T04:18:28.976Z,101841.53
2022-10-05T04:21:03.457Z,101842.38
2022-10-05T04:23:40.933Z,101841.50
2022-10-05T04:26:14.397Z,101841.47
2022-10-05T04:28:50.927Z,101846.75
2022-10-05T04:31:33.732Z,101846.78
2022-10-05T04:34:10.348Z,101841.56
2022-10-05T04:36:46.184Z,101858.16
2022-10-05T04:39:23.772Z,101860.78
2022-10-05T04:42:06.407Z,101857.28
2022-10-05T04:44:54.793Z,101851.22
2022-10-05T04:47:58.004Z,101856.44
2022-10-05T04:50:36.851Z,101865.25
2022-10-05T04:53:14.157Z,101878.38
2022-10-05T04:55:50.723Z,101875.81
2022-10-05T04:58:33.126Z,101879.31
2022-10-05T05:01:11.201Z,101882.78
2022-10-05T05:03:55.111Z,101893.34
2022-10-05T05:06:34.512Z,101892.47
2022-10-05T05:09:50.750Z,101892.44
2022-10-05T05:12:29.874Z,101900.38
2022-10-05T05:15:20.683Z,101902.09
2022-10-05T05:18:06.627Z,101903.00
2022-10-05T05:20:47.785Z,101907.34
2022-10-05T05:23:26.611Z,101919.63
2022-10-05T05:26:06.058Z,101920.53
2022-10-05T05:28:44.242Z,101921.38
2022-10-05T05:31:25.172Z,101927.47
2022-10-05T05:34:01.211Z,101924.81
2022-10-05T05:36:46.611Z,101920.28
2022-10-05T05:39:23.749Z,101920.13
2022-10-05T05:41:59.594Z,101924.31
2022-10-05T05:44:28.983Z,101924.13
2022-10-05T05:47:05.034Z,101925.66
2022-10-05T05:49:47.006Z,101922.84
2022-10-05T05:52:22.404Z,101926.09
2022-10-05T05:54:54.875Z,101926.63
2022-10-05T05:57:27.958Z,101925.53
2022-10-05T06:00:04.673Z,101911.38
2022-10-05T06:02:40.660Z,101921.56
2022-10-05T06:05:37.661Z,101937.94
2022-10-05T06:08:13.971Z,101938.47
2022-10-05T06:10:49.759Z,101939.28
2022-10-05T06:13:26.644Z,101944.22
2022-10-05T06:15:58.794Z,101937.91
2022-10-05T06:18:30.564Z,101941.13
2022-10-05T06:21:01.690Z,101945.41
2022-10-05T06:23:38.153Z,101947.22
2022-10-05T06:26:17.970Z,101950.59
2022-10-05T06:28:55.535Z,101949.41
2022-10-05T06:31:35.181Z,101953.41
2022-10-05T06:34:14.581Z,101939.28
2022-10-05T06:36:48.971Z,101944.69
2022-10-05T06:39:39.463Z,101949.03
2022-10-05T06:42:32.290Z,101946.38
2022-10-05T06:45:07.856Z,101950.88
2022-10-05T06:47:44.898Z,101948.00
2022-10-05T06:50:19.013Z,101949.09
2022-10-05T06:53:00.786Z,101945.38
2022-10-05T06:55:39.413Z,101957.25
2022-10-05T06:58:23.150Z,101951.59
2022-10-05T07:00:58.063Z,101952.19
2022-10-05T07:03:40.937Z,101938.56
2022-10-05T07:06:16.067Z,101944.44
2022-10-05T07:09:11.905Z,101955.56
2022-10-05T07:12:03.746Z,101948.38
2022-10-05T07:14:49.083Z,101951.66
2022-10-05T07:17:30.700Z,101958.22
2022-10-05T07:20:08.597Z,101951.06
2022-10-05T07:22:54.423Z,101961.47
2022-10-05T07:25:28.166Z,101955.53
2022-10-05T07:28:00.848Z,101957.28
2022-10-05T07:30:31.663Z,101963.13
2022-10-05T07:33:09.931Z,101961.09
2022-10-05T07:35:48.521Z,101965.56
2022-10-05T07:38:24.706Z,101957.72
2022-10-05T07:40:58.982Z,101963.44
2022-10-05T07:43:57.906Z,101961.53
2022-10-05T07:46:32.221Z,101966.44
2022-10-05T07:49:09.438Z,101974.06
2022-10-05T07:51:40.162Z,101969.94
2022-10-05T07:54:18.157Z,101965.97
2022-10-05T07:56:50.126Z,101982.56
2022-10-05T07:59:29.039Z,101975.59
2022-10-05T08:02:07.592Z,101975.78
2022-10-05T08:04:46.303Z,101975.41
2022-10-05T08:07:16.918Z,101979.31
2022-10-05T08:09:52.916Z,101975.59
2022-10-05T08:12:28.961Z,101983.25
2022-10-05T08:14:58.710Z,101989.16
2022-10-05T08:17:37.966Z,101988.91
2022-10-05T08:20:28.928Z,101975.81
2022-10-05T08:23:01.107Z,101982.22
2022-10-05T08:25:41.052Z,101983.75
2022-10-05T08:28:15.868Z,101976.47
2022-10-05T08:30:56.089Z,101983.16
2022-10-05T08:33:26.462Z,101988.25
2022-10-05T08:36:06.132Z,101986.47
2022-10-05T08:38:35.074Z,101983.28
2022-10-05T08:41:30.748Z,101997.25
2022-10-05T08:44:39.488Z,101994.09
2022-10-05T08:47:18.503Z,101998.13
2022-10-05T08:50:03.099Z,101986.50
2022-10-05T08:52:44.528Z,102003.44
2022-10-05T08:55:29.248Z,101993.47
2022-10-05T08:58:29.188Z,101991.19
2022-10-05T09:01:08.151Z,101995.78
2022-10-05T09:04:01.193Z,101993.53
2022-10-05T09:07:14.950Z,101986.16
2022-10-05T09:10:31.987Z,101978.09
2022-10-05T09:13:39.394Z,101978.69
2022-10-05T09:16:37.329Z,101983.91
2022-10-05T09:19:31.941Z,101979.13
2022-10-05T09:22:14.019Z,101976.81
2022-10-05T09:24:54.871Z,101982.69
2022-10-05T09:27:37.097Z,101980.34
2022-10-05T09:30:23.161Z,101974.72
2022-10-05T09:33:22.967Z,101977.56
2022-10-05T09:36:14.262Z,101967.75
2022-10-05T09:39:34.630Z,101967.00
2022-10-05T09:42:23.526Z,101963.00
2022-10-05T09:45:21.506Z,101967.25
2022-10-05T09:48:33.314Z,101968.06
2022-10-05T09:51:33.632Z,101970.97
2022-10-05T09:54:42.798Z,101967.63
2022-10-05T09:57:54.860Z,101975.97
2022-10-05T10:00:32.794Z,101962.75
2022-10-05T10:03:37.582Z,101970.41
2022-10-05T10:06:21.236Z,101963.97
2022-10-05T10:09:27.350Z,101956.16
2022-10-05T10:12:31.529Z,101957.50
2022-10-05T10:15:30.985Z,101950.75
2022-10-05T10:18:17.336Z,101943.56
2022-10-05T10:21:07.109Z,101951.47
2022-10-05T10:24:19.707Z,101948.59
2022-10-05T10:27:13.812Z,101945.59
2022-10-05T10:30:16.194Z,101950.06
2022-10-05T10:33:13.967Z,101955.16
2022-10-05T10:35:48.198Z,101953.59
2022-10-05T10:38:38.970Z,101955.91
2022-10-05T10:41:47.944Z,101956.63
2022-10-05T10:44:40.572Z,101953.59
2022-10-05T10:47:38.280Z,101958.34
2022-10-05T10:50:42.665Z,101942.94
2022-10-05T10:53:46.704Z,101949.84
2022-10-05T10:56:50.863Z,101942.00
2022-10-05T10:59:44.731Z,101938.59
2022-10-05T11:02:33.283Z,101940.41
2022-10-05T11:05:30.199Z,101940.09
2022-10-05T11:08:34.076Z,101940.22
2022-10-05T11:11:25.078Z,101925.50
2022-10-05T11:14:11.295Z,101936.84
2022-10-05T11:17:06.965Z,101943.72
2022-10-05T11:20:05.110Z,101944.97
2022-10-05T11:22:50.334Z,101935.41
2022-10-05T11:25:42.109Z,101933.94
2022-10-05T11:28:19.877Z,101931.44
2022-10-05T11:31:29.838Z,101933.34
2022-10-05T11:34:38.462Z,101941.59
2022-10-05T11:37:48.811Z,101942.63
2022-10-05T11:40:38.720Z,101934.56
2022-10-05T11:43:47.738Z,101934.94
2022-10-05T11:46:24.295Z,101934.47
2022-10-05T11:49:05.282Z,101932.25
2022-10-05T11:51:47.602Z,101938.28
2022-10-05T11:55:11.112Z,101933.63
2022-10-05T11:57:45.193Z,101946.25
2022-10-05T12:00:17.954Z,101937.19
2022-10-05T12:03:03.275Z,101928.41
2022-10-05T12:05:40.410Z,101931.34
2022-10-05T12:08:24.146Z,101937.63
2022-10-05T12:11:08.763Z,101933.59
2022-10-05T12:13:42.156Z,101929.63
2022-10-05T12:16:16.244Z,101924.03
2022-10-05T12:18:53.482Z,101923.81
2022-10-05T12:21:32.381Z,101929.88
2022-10-05T12:24:07.390Z,101925.63
2022-10-05T12:26:40.740Z,101933.47
2022-10-05T12:29:16.384Z,101933.47
2022-10-05T12:31:55.862Z,101930.00
2022-10-05T12:34:35.473Z,101924.56
2022-10-05T12:37:13.053Z,101933.19
2022-10-05T12:39:48.547Z,101931.06
2022-10-05T12:42:31.506Z,101934.28
2022-10-05T12:45:26.908Z,101926.44
2022-10-05T12:48:11.042Z,101929.91
2022-10-05T12:50:42.030Z,101933.22
2022-10-05T12:53:25.918Z,101938.81
2022-10-05T12:56:00.210Z,101932.97
2022-10-05T12:58:42.038Z,101938.75
2022-10-05T13:01:21.672Z,101928.06
2022-10-05T13:03:56.596Z,101936.03
2022-10-05T13:06:37.425Z,101937.91
2022-10-05T13:09:11.984Z,101952.28
2022-10-05T13:11:46.260Z,101951.84
2022-10-05T13:14:23.533Z,101950.19
2022-10-05T13:16:57.079Z,101944.91
2022-10-05T13:19:34.571Z,101952.03
2022-10-05T13:22:18.459Z,101949.28
2022-10-05T13:24:56.344Z,101944.88
2022-10-05T13:27:27.335Z,101948.22
2022-10-05T13:30:02.316Z,101947.00
2022-10-05T13:32:35.049Z,101954.47
2022-10-05T13:35:20.663Z,101952.06
2022-10-05T13:38:00.222Z,101946.09
2022-10-05T13:40:34.698Z,101953.28
2022-10-05T13:43:07.349Z,101946.22
2022-10-05T13:45:43.138Z,101950.53
2022-10-05T13:48:23.243Z,101951.97
2022-10-05T13:51:02.064Z,101957.78
2022-10-05T13:53:36.384Z,101954.81
2022-10-05T13:56:14.861Z,101949.13
2022-10-05T13:58:50.715Z,101948.97
2022-10-05T14:01:31.292Z,101947.06
2022-10-05T14:04:09.837Z,101952.69
2022-10-05T14:06:38.888Z,101951.03
2022-10-05T14:09:12.993Z,101967.31
2022-10-05T14:11:49.507Z,101960.53
2022-10-05T14:14:25.555Z,101953.00
2022-10-05T14:16:56.987Z,101949.66
2022-10-05T14:19:27.554Z,101956.19
2022-10-05T14:22:00.933Z,101956.53
2022-10-05T14:24:46.153Z,101959.63
2022-10-05T14:27:25.834Z,101952.91
2022-10-05T14:29:57.462Z,101957.59
2022-10-05T14:32:30.606Z,101968.47
2022-10-05T14:35:13.519Z,101964.25
2022-10-05T14:37:49.863Z,101974.13
2022-10-05T14:40:31.022Z,101979.69
2022-10-05T14:43:01.925Z,101961.72
2022-10-05T14:45:30.035Z,101981.16
2022-10-05T14:48:11.018Z,101979.34
2022-10-05T14:50:53.520Z,101990.06
2022-10-05T14:53:22.587Z,101995.50
2022-10-05T14:56:17.154Z,102004.50
2022-10-05T14:59:07.041Z,102009.25
2022-10-05T15:01:35.811Z,102007.66
2022-10-05T15:04:23.604Z,102021.09
2022-10-05T15:07:04.309Z,102020.78
2022-10-05T15:09:49.370Z,102019.34
2022-10-05T15:12:22.499Z,102016.03
2022-10-05T15:14:53.215Z,102014.38
2022-10-05T15:17:26.645Z,102016.44
2022-10-05T15:20:03.381Z,102015.66
2022-10-05T15:22:41.962Z,102021.25
2022-10-05T15:25:15.092Z,102028.63
2022-10-05T15:27:59.088Z,102027.94
2022-10-05T15:30:26.811Z,102036.03
2022-10-05T15:33:12.256Z,102039.59
2022-10-05T15:36:14.279Z,102041.53
2022-10-05T15:39:00.082Z,102029.50
2022-10-05T15:41:48.081Z,102028.66
2022-10-05T15:44:27.766Z,102030.84
2022-10-05T15:47:01.754Z,102039.31
2022-10-05T15:49:37.882Z,102035.16
2022-10-05T15:52:18.800Z,102033.94
2022-10-05T15:55:09.091Z,102034.25
2022-10-05T15:57:45.493Z,102042.38
2022-10-05T16:00:17.717Z,102048.66
2022-10-05T16:02:51.875Z,102043.75
2022-10-05T16:05:38.643Z,102049.19
2022-10-05T16:08:16.477Z,102049.47
2022-10-05T16:10:46.057Z,102047.72
2022-10-05T16:13:24.513Z,102051.31
2022-10-05T16:16:00.829Z,102058.56
2022-10-05T16:18:52.470Z,102061.47
2022-10-05T16:21:29.366Z,102068.63
2022-10-05T16:24:19.546Z,102072.34
2022-10-05T16:26:57.661Z,102069.84
2022-10-05T16:29:40.039Z,102074.47
2022-10-05T16:32:13.997Z,102075.28
2022-10-05T16:34:56.051Z,102075.41
2022-10-05T16:37:34.455Z,102074.59
2022-10-05T16:40:14.285Z,102063.31
2022-10-05T16:42:57.264Z,102074.88
2022-10-05T16:45:45.322Z,102074.97
2022-10-05T16:48:22.644Z,102070.91
2022-10-05T16:51:03.809Z,102072.75
2022-10-05T16:53:36.619Z,102070.19
2022-10-05T16:56:11.789Z,102069.41
2022-10-05T16:58:53.168Z,102063.31
2022-10-05T17:01:34.123Z,102070.59
2022-10-05T17:04:16.020Z,102064.50
2022-10-05T17:07:04.927Z,102056.75
2022-10-05T17:09:56.782Z,102059.41
2022-10-05T17:12:38.678Z,102062.19
2022-10-05T17:15:26.324Z,102067.47
2022-10-05T17:18:18.844Z,102064.09
2022-10-05T17:20:55.423Z,102068.56
2022-10-05T17:23:32.287Z,102065.16
2022-10-05T17:26:32.588Z,102067.94
2022-10-05T17:29:13.379Z,102075.16
2022-10-05T17:32:01.178Z,102072.59
2022-10-05T17:34:36.841Z,102071.97
2022-10-05T17:37:31.120Z,102078.28
2022-10-05T17:39:59.299Z,102082.06
2022-10-05T17:43:00.658Z,102090.00
2022-10-05T17:45:51.620Z,102094.41
2022-10-05T17:48:41.459Z,102088.31
2022-10-05T17:51:58.097Z,102099.69
2022-10-05T17:54:29.774Z,102094.50
2022-10-05T17:57:20.108Z,102104.25
2022-10-05T17:59:57.483Z,102099.88
2022-10-05T18:02:40.602Z,102092.09
2022-10-05T18:05:23.206Z,102097.38
2022-10-05T18:08:28.937Z,102109.75
2022-10-05T18:11:14.790Z,102104.50
2022-10-05T18:13:45.069Z,102106.28
2022-10-05T18:16:33.817Z,102102.81
2022-10-05T18:19:14.800Z,102092.28
2022-10-05T18:22:00.261Z,102102.00
2022-10-05T18:24:55.837Z,102090.75
2022-10-05T18:27:56.018Z,102106.66
2022-10-05T18:30:25.646Z,102099.69
2022-10-05T18:36:54.918Z,102095.69
2022-10-05T18:39:45.416Z,102105.38
2022-10-05T18:42:21.289Z,102117.69
2022-10-05T18:44:55.549Z,102107.22
2022-10-05T18:47:30.584Z,102109.03
2022-10-05T18:50:12.649Z,102110.75
2022-10-05T18:52:55.644Z,102106.63
2022-10-05T18:55:30.104Z,102110.19
2022-10-05T18:58:20.452Z,102099.75
2022-10-05T19:01:13.348Z,102108.50
2022-10-05T19:03:51.510Z,102108.63
2022-10-05T19:06:25.425Z,102110.34
2022-10-05T19:09:05.235Z,102111.28
2022-10-05T19:11:42.607Z,102116.72
2022-10-05T19:14:19.392Z,102113.25
2022-10-05T19:17:00.172Z,102119.53
2022-10-05T19:19:50.739Z,102117.75
2022-10-05T19:22:31.132Z,102124.84
2022-10-05T19:25:22.759Z,102117.75
2022-10-05T19:28:02.498Z,102106.44
2022-10-05T19:30:45.107Z,102120.50
2022-10-05T19:33:31.946Z,102115.28
2022-10-05T19:36:25.210Z,102125.06
2022-10-05T19:39:01.622Z,102125.00
2022-10-05T19:41:46.011Z,102115.41
2022-10-05T19:44:23.051Z,102131.16
2022-10-05T19:46:58.942Z,102124.13
2022-10-05T19:49:37.295Z,102118.94
2022-10-05T19:52:13.191Z,102124.28
2022-10-05T19:54:41.455Z,102131.31
2022-10-05T19:57:16.367Z,102126.03
2022-10-05T19:59:47.964Z,102124.28
2022-10-05T20:02:16.842Z,102124.25
2022-10-05T20:04:46.590Z,102126.97
2022-10-05T20:07:17.516Z,102118.22
2022-10-05T20:09:54.146Z,102134.03
2022-10-05T20:12:43.520Z,102132.22
2022-10-05T20:15:18.895Z,102134.00
2022-10-05T20:17:47.726Z,102132.22
2022-10-05T20:20:28.620Z,102133.13
2022-10-05T20:23:21.393Z,102144.53
2022-10-05T20:25:49.768Z,102135.75
2022-10-05T20:28:32.281Z,102136.56
2022-10-05T20:31:00.817Z,102140.09
2022-10-05T20:33:29.052Z,102137.47
2022-10-05T20:35:57.036Z,102137.41
2022-10-05T20:38:25.137Z,102132.13
2022-10-05T20:40:52.966Z,102126.88
2022-10-05T20:43:20.809Z,102122.44
2022-10-05T20:45:50.066Z,102124.19
2022-10-05T20:48:17.625Z,102126.81
2022-10-05T20:50:45.720Z,102125.00
2022-10-05T20:53:13.414Z,102129.34
2022-10-05T20:55:41.286Z,102132.88
2022-10-05T20:58:09.421Z,102138.13
2022-10-05T21:00:37.150Z,102146.78
2022-10-05T21:03:07.805Z,102145.25
2022-10-05T21:05:36.469Z,102158.56
2022-10-05T21:08:04.256Z,102154.22
2022-10-05T21:10:32.150Z,102162.06
2022-10-05T21:13:00.132Z,102153.28
2022-10-05T21:15:27.686Z,102155.91
2022-10-05T21:17:55.806Z,102143.66
2022-10-05T21:20:24.929Z,102151.56
2022-10-05T21:22:52.535Z,102151.47
2022-10-05T21:25:20.196Z,102143.72
2022-10-05T21:27:47.910Z,102152.47
2022-10-05T21:30:15.540Z,102149.84
2022-10-05T21:32:45.979Z,102147.22
2022-10-05T21:35:13.930Z,102140.38
2022-10-05T21:37:42.901Z,102145.69
2022-10-05T21:40:11.163Z,102142.25
2022-10-05T21:42:39.201Z,102154.50
2022-10-05T21:45:08.545Z,102152.75
2022-10-05T21:47:36.627Z,102152.72
2022-10-05T21:50:05.068Z,102150.94
2022-10-05T21:52:34.589Z,102146.59
2022-10-05T21:55:05.741Z,102145.72
2022-10-05T21:57:35.548Z,102147.50
2022-10-05T22:00:04.714Z,102143.16
2022-10-05T22:02:32.614Z,102143.13
2022-10-05T22:05:00.213Z,102137.00
2022-10-05T22:07:29.276Z,102132.63
2022-10-05T22:09:57.282Z,102128.28
2022-10-05T22:12:26.673Z,102120.47
2022-10-05T22:14:55.642Z,102117.00
2022-10-05T22:17:27.026Z,102120.47
2022-10-05T22:19:55.823Z,102112.63
2022-10-05T22:22:24.123Z,102111.78
2022-10-05T22:24:53.126Z,102109.22
2022-10-05T22:27:22.904Z,102115.41
2022-10-05T22:29:52.047Z,102121.47
2022-10-05T22:32:20.362Z,102121.50
2022-10-05T22:34:48.102Z,102118.91
2022-10-05T22:37:15.699Z,102118.03
2022-10-05T22:39:43.778Z,102114.56
2022-10-05T22:42:12.102Z,102118.91
2022-10-05T22:44:39.696Z,102133.78
2022-10-05T22:47:09.348Z,102126.75
2022-10-05T22:49:37.935Z,102125.00
2022-10-05T22:52:05.681Z,102128.47
2022-10-05T22:54:37.324Z,102124.97
2022-10-05T22:57:05.058Z,102121.50
2022-10-05T22:59:35.437Z,102118.91
2022-10-05T23:02:03.125Z,102129.31
2022-10-05T23:04:32.251Z,102119.78
2022-10-05T23:06:59.989Z,102108.41
2022-10-05T23:09:28.404Z,102110.13
2022-10-05T23:11:56.013Z,102115.34
2022-10-05T23:14:24.900Z,102114.50
2022-10-05T23:16:52.664Z,102109.34
2022-10-05T23:19:22.116Z,102105.84
2022-10-05T23:21:51.139Z,102101.50
2022-10-05T23:24:19.894Z,102098.00
2022-10-05T23:26:47.516Z,102094.50
2022-10-05T23:29:15.326Z,102102.38
2022-10-05T23:31:42.880Z,102102.41
2022-10-05T23:34:10.563Z,102098.94
2022-10-05T23:36:38.329Z,102097.19
2022-10-05T23:39:07.259Z,102097.19
2022-10-05T23:41:35.143Z,102097.16
2022-10-05T23:44:03.007Z,102097.16
2022-10-05T23:46:30.595Z,102104.16
2022-10-05T23:48:58.144Z,102107.63
2022-10-05T23:51:25.922Z,102099.81
2022-10-05T23:53:53.575Z,102096.31
2022-10-05T23:56:23.060Z,102111.16
2022-10-05T23:58:50.719Z,102102.41
